Aérodrome :
LOGIN :

S'inscrire | Disclaimer

   EN    FR    IT 

 










Légende :    VFR   VFR Marginal   IFR   IFR Intensif   IFR Très Intensif
Visi : 
Plafond : 
>= 8 km
>= 3000ft
5 à 8 km
1000 à 3000 ft
1500m à 5 km
500 à 1000 ft
800 à 1500m
200 à 500 ft
< 800m
< 200 ft
Symboles :   Orages  Brouillard  Fortes neiges  Fortes précipitations  Vent > 20 kt
SIGMETs :   Divers  Orages  Givrage  Turbulence  Onde Orograph.  Cendres Volcan.






- Altitude de l'aérodrome : 1411 ft
- Code IATA : ZHI


LSZG - Grenchen

DERNIER METAR :
  • 140650Z 24015KT 9999 +DZ FEW038 SCT042 06/05 Q0998 NOSIG

METARs EXPIRÉS :
  • 140620Z AUTO 24022KT 9999 -RA SCT007 BKN009 06/05 Q0997
  • 140550Z AUTO 24024G34KT 6000 -RA FEW039 SCT050 06/05 Q0996 REDZ
  • 140520Z AUTO 24021KT 9999 -RA FEW010 SCT042 BKN048 05/04 Q0996 REDZ
  • 140450Z AUTO 24020G31KT 9999 -DZ OVC009 SCT011 05/04 Q0996 RERA
  • 140420Z AUTO 24017KT 9999 -DZ OVC009 SCT011 04/03 Q0996

TAF TAF LSZG
Valide du 14 à 06h jusqu'au 14 à 15h UTC


140525Z 1406/1415 24015KT 9999 FEW009 SCT012 BKN020
TEMPO 1406/1410 SHRA BKN009
TEMPO 1406/1415 25017G27KT
TEMPO 1406/1411 25020G35KT
ATIS : +41 32 396 96 33



MET'MAP, la Météo Aéronautique d'un coup d'oeil ! - Copyright ORBIFLY Décembre 2007 - Disclaimer

ORBIFLY MET'MAP TEAM :

Programmation & Développement : Alexandra Zaïnal
Sur une idée originale de : Baudouin d'Aumeries
Assistance à la programmation : Marc-Olivier Méhu
Soutien technique & logistique : Manuel Goepfert

Contact : metmap@orbifly.com




SOURCES & CREDITS :

   NOAA